world map with GLZ marked

GLZ - Airport

This information may not be accurate or current and is not valid for navigation or flight planning. No warranty of fitness for any purpose is made or implied.

flag of Noord-Brabant (North Brabant)flag of Netherlands

Donate via PayPal

Additional information is available on the NEW Great Circle Mapper

Location
City:  Breda, Noord-Brabant (North Brabant), Netherlands
Name:Gilze-Rijen AB
ICAO / IATA:EHGR / GLZ

Details
Type:Airport (Aerodrome, Airfield)
Use:Military
Latitude:51°34'03"N (51.567389)
Longitude:4°55'55"E (4.931833)
Datum:WGS 1984
Elevation:49 ft (15 m)
Runways:2
Longest:9118 × 148 ft (2779 × 45 m)

Time
Timezone:UTC+1 (DST+4)
Local Time:

Weather
METAR:EHGR  170213Z AUTO 15006KT 6000 BR FEW013 OVC016 04/04 Q1012 WHT
TAF:EHGR  (expired)

Related Locations
Nearby:
Farthest:CHT: 11890 mi / 19135 km
Waitangi [Tuuta], CIT, NZ

Find:

   beyond  
but within

Other Information
Maps:
Sources:

  


 


Great Circle Mapper   Great Circle Mapper
Great Circle Mapper FAQ   Great Circle Mapper FAQ
  Karl's Home Page
KLSē   KLSē Home
   GC on Facebook
Airlines of the World   Airlines of the World
Donate via PayPal


Copyright © 2004-2018, Karl L. Swartz. All rights reserved.
All trademarks mentioned herein belong to their respective owners.

Please see credits for attribution and copyright information.

Karl Swartz <karl@kls2.com>
  Powered by FreeBSD
Valid HTML 4.01!
Labeled with ICRA
hCard Microformat
Geo Microformat